createdAt,value
2022-10-02T00:02:02.252Z,14.15
2022-10-02T00:04:38.795Z,14.09
2022-10-02T00:07:08.127Z,14.23
2022-10-02T00:09:43.468Z,14.26
2022-10-02T00:12:15.469Z,14.11
2022-10-02T00:14:47.456Z,13.95
2022-10-02T00:17:22.052Z,13.95
2022-10-02T00:19:56.066Z,14.06
2022-10-02T00:22:38.746Z,14.10
2022-10-02T00:25:14.788Z,14.10
2022-10-02T00:28:00.421Z,14.16
2022-10-02T00:30:33.506Z,14.12
2022-10-02T00:33:12.615Z,14.22
2022-10-02T00:35:58.385Z,14.26
2022-10-02T00:38:39.469Z,14.16
2022-10-02T00:41:54.919Z,14.12
2022-10-02T00:44:39.460Z,14.04
2022-10-02T00:47:16.508Z,14.03
2022-10-02T00:50:04.540Z,13.96
2022-10-02T00:52:49.563Z,13.95
2022-10-02T00:55:31.409Z,14.06
2022-10-02T00:58:10.298Z,14.10
2022-10-02T01:00:39.281Z,14.10
2022-10-02T01:03:17.166Z,14.06
2022-10-02T01:05:45.499Z,14.04
2022-10-02T01:08:15.149Z,14.11
2022-10-02T01:10:43.959Z,14.05
2022-10-02T01:13:11.835Z,14.06
2022-10-02T01:15:45.868Z,14.06
2022-10-02T01:18:15.201Z,13.96
2022-10-02T01:20:46.304Z,13.91
2022-10-02T01:23:25.593Z,13.97
2022-10-02T01:25:54.960Z,14.04
2022-10-02T01:28:23.572Z,14.08
2022-10-02T01:30:55.972Z,14.13
2022-10-02T01:33:24.422Z,14.16
2022-10-02T01:35:52.599Z,14.11
2022-10-02T01:38:24.777Z,14.21
2022-10-02T01:40:54.040Z,14.23
2022-10-02T01:43:25.576Z,14.27
2022-10-02T01:46:02.710Z,14.27
2022-10-02T01:48:46.590Z,14.21
2022-10-02T01:51:20.957Z,14.34
2022-10-02T01:53:56.321Z,14.19
2022-10-02T01:56:37.504Z,14.21
2022-10-02T01:59:16.902Z,14.18
2022-10-02T02:01:51.307Z,14.12
2022-10-02T02:04:24.995Z,14.14
2022-10-02T02:07:00.205Z,14.07
2022-10-02T02:09:39.030Z,14.06
2022-10-02T02:12:15.941Z,14.09
2022-10-02T02:14:53.032Z,14.15
2022-10-02T02:17:27.544Z,14.21
2022-10-02T02:20:03.234Z,14.13
2022-10-02T02:22:35.414Z,14.13
2022-10-02T02:25:08.199Z,14.19
2022-10-02T02:27:49.247Z,14.21
2022-10-02T02:30:19.153Z,14.22
2022-10-02T02:32:51.400Z,14.21
2022-10-02T02:35:26.293Z,14.21
2022-10-02T02:37:59.878Z,14.22
2022-10-02T02:40:32.173Z,14.15
2022-10-02T02:43:05.873Z,14.07
2022-10-02T02:45:39.337Z,14.15
2022-10-02T02:48:10.286Z,14.40
2022-10-02T02:50:43.858Z,14.37
2022-10-02T02:53:15.723Z,14.32
2022-10-02T02:55:48.996Z,14.29
2022-10-02T02:58:23.950Z,14.36
2022-10-02T03:00:52.248Z,14.36
2022-10-02T03:03:20.441Z,14.29
2022-10-02T03:05:51.937Z,14.25
2022-10-02T03:08:25.374Z,14.23
2022-10-02T03:11:06.731Z,14.19
2022-10-02T03:13:49.712Z,14.30
2022-10-02T03:16:32.158Z,14.42
2022-10-02T03:19:14.391Z,14.41
2022-10-02T03:21:52.033Z,14.46
2022-10-02T03:24:25.073Z,14.54
2022-10-02T03:27:00.479Z,14.57
2022-10-02T03:29:36.223Z,14.58
2022-10-02T03:32:06.651Z,14.48
2022-10-02T03:34:36.461Z,14.43
2022-10-02T03:37:06.303Z,14.45
2022-10-02T03:39:34.374Z,14.32
2022-10-02T03:42:02.823Z,14.31
2022-10-02T03:44:32.429Z,14.28
2022-10-02T03:47:00.327Z,14.36
2022-10-02T03:49:28.906Z,14.45
2022-10-02T03:51:59.051Z,14.48
2022-10-02T03:54:32.021Z,14.43
2022-10-02T03:57:06.141Z,14.48
2022-10-02T03:59:44.092Z,14.55
2022-10-02T04:02:22.416Z,14.60
2022-10-02T04:04:56.409Z,14.53
2022-10-02T04:07:30.693Z,14.46
2022-10-02T04:10:15.641Z,14.32
2022-10-02T04:12:49.379Z,14.37
2022-10-02T04:15:24.723Z,14.23
2022-10-02T04:17:59.215Z,14.15
2022-10-02T04:20:33.937Z,14.07
2022-10-02T04:23:09.066Z,14.01
2022-10-02T04:25:45.214Z,14.06
2022-10-02T04:28:15.784Z,13.96
2022-10-02T04:30:45.132Z,13.92
2022-10-02T04:33:15.756Z,14.12
2022-10-02T04:35:53.631Z,14.04
2022-10-02T04:38:33.663Z,14.10
2022-10-02T04:41:26.913Z,14.07
2022-10-02T04:44:12.418Z,14.07
2022-10-02T04:47:07.457Z,14.20
2022-10-02T04:49:57.514Z,14.15
2022-10-02T04:52:52.626Z,14.15
2022-10-02T04:55:39.158Z,14.09
2022-10-02T04:58:38.631Z,14.13
2022-10-02T05:01:17.632Z,14.05
2022-10-02T05:04:05.415Z,14.09
2022-10-02T05:06:50.016Z,14.19
2022-10-02T05:09:29.030Z,14.09
2022-10-02T05:12:25.991Z,14.11
2022-10-02T05:15:26.231Z,14.06
2022-10-02T05:18:14.572Z,14.11
2022-10-02T05:21:18.668Z,14.04
2022-10-02T05:24:02.616Z,13.90
2022-10-02T05:26:47.653Z,13.91
2022-10-02T05:29:32.376Z,13.88
2022-10-02T05:32:17.947Z,13.92
2022-10-02T05:35:01.106Z,13.93
2022-10-02T05:37:46.351Z,13.97
2022-10-02T05:40:23.017Z,13.89
2022-10-02T05:43:03.208Z,13.99
2022-10-02T05:45:36.671Z,14.04
2022-10-02T05:48:07.783Z,14.15
2022-10-02T05:50:37.764Z,14.23
2022-10-02T05:53:18.623Z,14.23
2022-10-02T05:55:54.085Z,14.14
2022-10-02T05:58:27.946Z,14.01
2022-10-02T06:01:03.348Z,14.15
2022-10-02T06:03:39.473Z,14.11
2022-10-02T06:06:14.104Z,13.99
2022-10-02T06:08:52.971Z,14.01
2022-10-02T06:11:27.765Z,14.09
2022-10-02T06:14:00.955Z,14.12
2022-10-02T06:16:35.475Z,14.05
2022-10-02T06:19:09.003Z,14.06
2022-10-02T06:21:44.775Z,14.06
2022-10-02T06:24:21.555Z,14.06
2022-10-02T06:26:54.613Z,14.09
2022-10-02T06:29:27.529Z,14.06
2022-10-02T06:32:13.507Z,14.12
2022-10-02T06:34:45.757Z,14.25
2022-10-02T06:37:40.534Z,14.26
2022-10-02T06:40:35.075Z,14.14
2022-10-02T06:43:07.447Z,13.99
2022-10-02T06:45:43.142Z,14.11
2022-10-02T06:48:24.548Z,14.21
2022-10-02T06:51:03.769Z,14.26
2022-10-02T06:53:50.605Z,14.38
2022-10-02T06:56:39.095Z,14.50
2022-10-02T06:59:24.647Z,14.38
2022-10-02T07:02:04.007Z,14.53
2022-10-02T07:04:45.951Z,14.62
2022-10-02T07:07:25.805Z,14.55
2022-10-02T07:10:11.814Z,14.58
2022-10-02T07:13:13.060Z,14.51
2022-10-02T07:16:15.908Z,14.44
2022-10-02T07:19:00.509Z,14.56
2022-10-02T07:21:39.712Z,14.61
2022-10-02T07:24:26.948Z,14.69
2022-10-02T07:26:58.674Z,14.58
2022-10-02T07:29:42.878Z,14.66
2022-10-02T07:32:43.346Z,14.67
2022-10-02T07:35:30.278Z,14.64
2022-10-02T07:38:13.429Z,14.67
2022-10-02T07:40:52.037Z,14.61
2022-10-02T07:43:40.664Z,14.53
2022-10-02T07:46:18.278Z,14.59
2022-10-02T07:49:02.244Z,14.59
2022-10-02T07:51:50.920Z,14.72
2022-10-02T07:54:45.597Z,14.79
2022-10-02T07:57:26.449Z,14.74
2022-10-02T07:59:59.134Z,14.75
2022-10-02T08:02:34.881Z,14.87
2022-10-02T08:05:06.952Z,14.78
2022-10-02T08:07:34.899Z,14.65
2022-10-02T08:10:07.599Z,14.74
2022-10-02T08:12:41.035Z,14.68
2022-10-02T08:15:15.636Z,14.90
2022-10-02T08:17:50.011Z,15.05
2022-10-02T08:20:29.151Z,15.26
2022-10-02T08:23:04.313Z,15.51
2022-10-02T08:25:39.809Z,15.38
2022-10-02T08:28:17.918Z,15.31
2022-10-02T08:30:45.732Z,15.27
2022-10-02T08:33:19.228Z,15.29
2022-10-02T08:35:53.678Z,15.34
2022-10-02T08:38:36.893Z,15.11
2022-10-02T08:41:55.391Z,15.17
2022-10-02T08:44:53.450Z,15.25
2022-10-02T08:48:11.552Z,15.27
2022-10-02T08:51:10.304Z,15.29
2022-10-02T08:54:11.410Z,15.21
2022-10-02T08:56:59.040Z,15.18
2022-10-02T08:59:50.800Z,15.17
2022-10-02T09:02:58.317Z,14.89
2022-10-02T09:05:56.796Z,14.71
2022-10-02T09:09:04.779Z,14.82
2022-10-02T09:12:01.199Z,14.82
2022-10-02T09:14:49.912Z,15.06
2022-10-02T09:17:32.321Z,15.05
2022-10-02T09:20:20.168Z,14.89
2022-10-02T09:23:34.171Z,14.86
2022-10-02T09:26:09.266Z,14.96
2022-10-02T09:29:14.163Z,15.27
2022-10-02T09:32:21.845Z,15.27
2022-10-02T09:35:24.727Z,15.18
2022-10-02T09:38:44.936Z,15.36
2022-10-02T09:41:58.412Z,15.25
2022-10-02T09:45:04.422Z,15.09
2022-10-02T09:48:08.614Z,15.23
2022-10-02T09:50:59.159Z,15.16
2022-10-02T09:54:14.863Z,14.94
2022-10-02T09:57:02.625Z,15.00
2022-10-02T10:00:11.450Z,15.30
2022-10-02T10:03:26.903Z,15.43
2022-10-02T10:06:34.057Z,15.20
2022-10-02T10:09:24.699Z,15.02
2022-10-02T10:12:49.538Z,14.97
2022-10-02T10:15:40.825Z,15.01
2022-10-02T10:18:48.065Z,15.04
2022-10-02T10:22:10.526Z,15.04
2022-10-02T10:25:10.914Z,15.10
2022-10-02T10:28:01.699Z,15.17
2022-10-02T10:31:04.208Z,15.06
2022-10-02T10:33:58.103Z,15.35
2022-10-02T10:37:14.988Z,15.68
2022-10-02T10:40:25.759Z,16.09
2022-10-02T10:43:16.810Z,15.89
2022-10-02T10:46:05.972Z,15.70
2022-10-02T10:49:02.935Z,15.57
2022-10-02T10:51:35.934Z,15.54
2022-10-02T10:54:52.065Z,15.65
2022-10-02T10:57:36.917Z,15.56
2022-10-02T11:00:17.486Z,15.67
2022-10-02T11:03:22.764Z,15.48
2022-10-02T11:06:40.910Z,15.61
2022-10-02T11:09:44.479Z,15.69
2022-10-02T11:12:29.850Z,15.74
2022-10-02T11:15:17.627Z,15.55
2022-10-02T11:18:01.853Z,15.38
2022-10-02T11:20:48.708Z,15.51
2022-10-02T11:23:43.525Z,15.44
2022-10-02T11:26:35.559Z,15.48
2022-10-02T11:29:38.388Z,15.59
2022-10-02T11:32:50.164Z,15.65
2022-10-02T11:35:48.392Z,15.55
2022-10-02T11:38:35.621Z,15.72
2022-10-02T11:41:29.173Z,15.67
2022-10-02T11:44:14.141Z,15.62
2022-10-02T11:47:12.212Z,15.59
2022-10-02T11:50:13.892Z,15.70
2022-10-02T11:53:11.353Z,15.75
2022-10-02T11:55:56.241Z,16.04
2022-10-02T11:58:42.018Z,16.14
2022-10-02T12:01:20.083Z,16.10
2022-10-02T12:04:04.114Z,15.83
2022-10-02T12:06:45.400Z,16.13
2022-10-02T12:09:23.879Z,16.50
2022-10-02T12:12:05.030Z,16.45
2022-10-02T12:14:37.364Z,16.11
2022-10-02T12:17:19.284Z,16.19
2022-10-02T12:20:24.304Z,16.37
2022-10-02T12:23:21.350Z,16.70
2022-10-02T12:26:15.901Z,16.46
2022-10-02T12:28:56.120Z,16.34
2022-10-02T12:31:32.795Z,16.55
2022-10-02T12:34:09.230Z,16.40
2022-10-02T12:36:56.304Z,16.46
2022-10-02T12:39:41.675Z,16.39
2022-10-02T12:42:30.940Z,16.44
2022-10-02T12:45:22.306Z,16.58
2022-10-02T12:48:19.169Z,16.47
2022-10-02T12:51:09.022Z,16.70
2022-10-02T12:53:54.302Z,16.87
2022-10-02T12:56:53.601Z,16.53
2022-10-02T12:59:28.460Z,16.80
2022-10-02T13:02:49.086Z,17.02
2022-10-02T13:05:54.176Z,16.91
2022-10-02T13:09:12.680Z,16.99
2022-10-02T13:11:58.631Z,17.22
2022-10-02T13:14:42.241Z,17.10
2022-10-02T13:17:24.269Z,16.75
2022-10-02T13:20:02.417Z,16.55
2022-10-02T13:22:41.626Z,16.56
2022-10-02T13:25:34.561Z,16.57
2022-10-02T13:28:22.580Z,16.47
2022-10-02T13:31:01.976Z,16.48
2022-10-02T13:33:54.132Z,16.30
2022-10-02T13:36:35.412Z,16.19
2022-10-02T13:39:14.297Z,16.32
2022-10-02T13:42:00.599Z,16.50
2022-10-02T13:44:38.204Z,16.21
2022-10-02T13:47:23.773Z,16.29
2022-10-02T13:50:20.364Z,16.63
2022-10-02T13:53:03.799Z,16.45
2022-10-02T13:55:35.483Z,16.10
2022-10-02T13:58:30.114Z,16.11
2022-10-02T14:01:08.553Z,16.11
2022-10-02T14:03:50.629Z,16.40
2022-10-02T14:06:25.687Z,16.51
2022-10-02T14:09:15.889Z,16.49
2022-10-02T14:11:59.698Z,16.21
2022-10-02T14:14:36.548Z,16.34
2022-10-02T14:17:15.894Z,16.51
2022-10-02T14:20:18.835Z,16.51
2022-10-02T14:23:03.282Z,16.42
2022-10-02T14:25:46.556Z,16.37
2022-10-02T14:28:31.759Z,16.34
2022-10-02T14:31:39.596Z,16.18
2022-10-02T14:34:40.832Z,16.30
2022-10-02T14:37:35.308Z,16.11
2022-10-02T14:40:14.130Z,15.91
2022-10-02T14:43:09.247Z,15.88
2022-10-02T14:46:17.550Z,15.75
2022-10-02T14:49:01.188Z,15.82
2022-10-02T14:51:51.736Z,16.07
2022-10-02T14:54:33.383Z,16.22
2022-10-02T14:57:23.366Z,16.18
2022-10-02T15:00:07.119Z,15.92
2022-10-02T15:02:46.049Z,15.86
2022-10-02T15:05:39.958Z,16.04
2022-10-02T15:08:15.475Z,15.97
2022-10-02T15:10:43.516Z,15.95
2022-10-02T15:13:24.630Z,15.86
2022-10-02T15:16:11.265Z,15.64
2022-10-02T15:18:45.644Z,15.56
2022-10-02T15:21:26.257Z,15.60
2022-10-02T15:23:57.779Z,15.72
2022-10-02T15:26:41.293Z,15.65
2022-10-02T15:29:26.881Z,15.40
2022-10-02T15:32:28.494Z,15.51
2022-10-02T15:35:09.707Z,15.49
2022-10-02T15:37:47.129Z,15.28
2022-10-02T15:40:29.910Z,15.32
2022-10-02T15:43:01.664Z,15.41
2022-10-02T15:45:49.023Z,15.56
2022-10-02T15:48:35.116Z,15.75
2022-10-02T15:51:13.789Z,15.85
2022-10-02T15:53:55.209Z,15.78
2022-10-02T15:56:57.444Z,15.91
2022-10-02T15:59:37.497Z,15.88
2022-10-02T16:02:21.295Z,15.76
2022-10-02T16:04:59.703Z,15.85
2022-10-02T16:07:57.458Z,15.95
2022-10-02T16:10:26.962Z,15.89
2022-10-02T16:13:32.912Z,15.60
2022-10-02T16:16:11.349Z,15.58
2022-10-02T16:18:55.065Z,15.54
2022-10-02T16:21:37.436Z,15.61
2022-10-02T16:24:26.816Z,15.67
2022-10-02T16:27:21.166Z,15.52
2022-10-02T16:30:03.250Z,15.34
2022-10-02T16:32:39.967Z,15.08
2022-10-02T16:35:46.161Z,15.03
2022-10-02T16:38:19.181Z,15.16
2022-10-02T16:40:56.986Z,15.18
2022-10-02T16:43:40.350Z,14.84
2022-10-02T16:46:12.398Z,14.61
2022-10-02T16:48:49.321Z,14.78
2022-10-02T16:51:33.357Z,14.90
2022-10-02T16:54:14.098Z,15.09
2022-10-02T16:56:48.087Z,15.12
2022-10-02T16:59:21.227Z,15.12
2022-10-02T17:02:15.982Z,15.13
2022-10-02T17:04:46.291Z,15.03
2022-10-02T17:07:37.311Z,14.81
2022-10-02T17:10:19.492Z,14.83
2022-10-02T17:12:57.200Z,14.89
2022-10-02T17:15:33.265Z,14.88
2022-10-02T20:20:41.776Z,13.01
2022-10-02T20:32:27.067Z,13.17
2022-10-02T20:35:00.735Z,13.12
2022-10-02T20:37:35.145Z,13.15
2022-10-02T21:18:31.123Z,12.60
2022-10-02T21:21:33.758Z,12.48
2022-10-02T21:24:38.103Z,12.20
2022-10-02T21:27:37.467Z,12.22
2022-10-02T21:30:13.864Z,12.29
2022-10-02T21:32:56.595Z,12.32
